sensor_id;sensor_type;location;lat;lon;timestamp;pressure;altitude;pressure_sealevel;temperature;humidity
22930;BME280;11630;42.660;23.292;2023-03-22T00:02:10;68740.52;;;10.96;100.00
22930;BME280;11630;42.660;23.292;2023-03-22T00:04:43;68749.23;;;10.99;100.00
22930;BME280;11630;42.660;23.292;2023-03-22T00:07:15;68717.67;;;10.71;100.00
22930;BME280;11630;42.660;23.292;2023-03-22T00:09:45;68686.66;;;10.45;100.00
22930;BME280;11630;42.660;23.292;2023-03-22T00:12:16;68672.26;;;10.30;100.00
22930;BME280;11630;42.660;23.292;2023-03-22T00:14:47;68637.75;;;10.05;100.00
22930;BME280;11630;42.660;23.292;2023-03-22T00:17:17;68630.35;;;9.92;100.00
22930;BME280;11630;42.660;23.292;2023-03-22T00:19:49;68625.48;;;9.90;100.00
22930;BME280;11630;42.660;23.292;2023-03-22T00:22:20;68633.89;;;9.94;100.00
22930;BME280;11630;42.660;23.292;2023-03-22T00:24:51;68633.09;;;9.94;100.00
22930;BME280;11630;42.660;23.292;2023-03-22T00:27:22;68640.16;;;10.01;100.00
22930;BME280;11630;42.660;23.292;2023-03-22T00:29:53;68663.00;;;10.22;100.00
22930;BME280;11630;42.660;23.292;2023-03-22T00:32:24;68661.11;;;10.24;100.00
22930;BME280;11630;42.660;23.292;2023-03-22T00:34:54;68653.50;;;10.17;100.00
22930;BME280;11630;42.660;23.292;2023-03-22T00:37:25;68661.64;;;10.22;100.00
22930;BME280;11630;42.660;23.292;2023-03-22T00:39:55;68670.08;;;10.26;100.00
22930;BME280;11630;42.660;23.292;2023-03-22T00:42:26;68673.61;;;10.28;100.00
22930;BME280;11630;42.660;23.292;2023-03-22T00:44:57;68653.77;;;10.16;100.00
22930;BME280;11630;42.660;23.292;2023-03-22T00:47:27;68649.69;;;10.06;100.00
22930;BME280;11630;42.660;23.292;2023-03-22T00:49:59;68655.38;;;10.07;100.00
22930;BME280;11630;42.660;23.292;2023-03-22T00:52:29;68634.45;;;9.97;100.00
22930;BME280;11630;42.660;23.292;2023-03-22T00:55:00;68625.22;;;9.91;100.00
22930;BME280;11630;42.660;23.292;2023-03-22T00:57:31;68629.26;;;9.89;100.00
22930;BME280;11630;42.660;23.292;2023-03-22T01:00:02;68626.55;;;9.86;100.00
22930;BME280;11630;42.660;23.292;2023-03-22T01:02:32;68623.83;;;9.86;100.00
22930;BME280;11630;42.660;23.292;2023-03-22T01:05:04;68623.56;;;9.87;100.00
22930;BME280;11630;42.660;23.292;2023-03-22T01:07:36;68636.09;;;9.98;100.00
22930;BME280;11630;42.660;23.292;2023-03-22T01:10:10;68633.89;;;9.94;100.00
22930;BME280;11630;42.660;23.292;2023-03-22T01:12:40;68630.91;;;9.90;100.00
22930;BME280;11630;42.660;23.292;2023-03-22T01:15:11;68631.45;;;9.95;100.00
22930;BME280;11630;42.660;23.292;2023-03-22T01:17:43;68635.00;;;9.97;100.00
22930;BME280;11630;42.660;23.292;2023-03-22T01:20:13;68618.67;;;9.85;100.00
22930;BME280;11630;42.660;23.292;2023-03-22T01:22:44;68628.46;;;9.92;100.00
22930;BME280;11630;42.660;23.292;2023-03-22T01:25:15;68623.03;;;9.84;100.00
22930;BME280;11630;42.660;23.292;2023-03-22T01:27:45;68617.05;;;9.81;100.00
22930;BME280;11630;42.660;23.292;2023-03-22T01:30:17;68627.91;;;9.86;100.00
22930;BME280;11630;42.660;23.292;2023-03-22T01:32:46;68611.89;;;9.80;100.00
22930;BME280;11630;42.660;23.292;2023-03-22T01:35:16;68630.34;;;9.90;100.00
22930;BME280;11630;42.660;23.292;2023-03-22T01:37:47;68634.20;;;9.98;100.00
22930;BME280;11630;42.660;23.292;2023-03-22T01:40:18;68628.73;;;9.91;100.00
22930;BME280;11630;42.660;23.292;2023-03-22T01:42:51;68626.02;;;9.88;100.00
22930;BME280;11630;42.660;23.292;2023-03-22T01:48:14;68607.53;;;9.74;100.00
22930;BME280;11630;42.660;23.292;2023-03-22T01:50:46;68601.01;;;9.65;100.00
22930;BME280;11630;42.660;23.292;2023-03-22T01:53:16;68595.03;;;9.62;100.00
22930;BME280;11630;42.660;23.292;2023-03-22T01:55:47;68611.33;;;9.77;100.00
22930;BME280;11630;42.660;23.292;2023-03-22T01:58:19;68610.53;;;9.78;100.00
22930;BME280;11630;42.660;23.292;2023-03-22T02:00:50;68616.48;;;9.78;100.00
22930;BME280;11630;42.660;23.292;2023-03-22T02:05:57;68600.45;;;9.62;100.00
22930;BME280;11630;42.660;23.292;2023-03-22T02:08:27;68598.83;;;9.63;100.00
22930;BME280;11630;42.660;23.292;2023-03-22T02:10:58;68606.44;;;9.70;100.00
22930;BME280;11630;42.660;23.292;2023-03-22T02:19:01;68615.14;;;9.81;100.00
22930;BME280;11630;42.660;23.292;2023-03-22T02:24:39;68615.13;;;9.76;100.00
22930;BME280;11630;42.660;23.292;2023-03-22T02:27:26;68610.53;;;9.75;100.00
22930;BME280;11630;42.660;23.292;2023-03-22T02:32:53;68608.61;;;9.72;100.00
22930;BME280;11630;42.660;23.292;2023-03-22T02:35:32;68603.72;;;9.63;100.00
22930;BME280;11630;42.660;23.292;2023-03-22T02:41:10;68589.06;;;9.54;100.00
22930;BME280;11630;42.660;23.292;2023-03-22T02:49:29;68592.87;;;9.58;100.00
22930;BME280;11630;42.660;23.292;2023-03-22T02:51:57;68587.70;;;9.54;100.00
22930;BME280;11630;42.660;23.292;2023-03-22T02:57:15;68593.67;;;9.60;100.00
22930;BME280;11630;42.660;23.292;2023-03-22T02:59:43;68606.98;;;9.68;100.00
22930;BME280;11630;42.660;23.292;2023-03-22T03:02:16;68594.48;;;9.57;100.00
22930;BME280;11630;42.660;23.292;2023-03-22T03:04:50;68597.20;;;9.62;100.00
22930;BME280;11630;42.660;23.292;2023-03-22T03:07:24;68590.13;;;9.55;100.00
22930;BME280;11630;42.660;23.292;2023-03-22T03:09:54;68594.75;;;9.58;100.00
22930;BME280;11630;42.660;23.292;2023-03-22T03:12:27;68588.77;;;9.55;100.00
22930;BME280;11630;42.660;23.292;2023-03-22T03:15:07;68572.20;;;9.41;100.00
22930;BME280;11630;42.660;23.292;2023-03-22T03:17:40;68575.18;;;9.40;100.00
22930;BME280;11630;42.660;23.292;2023-03-22T03:20:17;68571.41;;;9.39;100.00
22930;BME280;11630;42.660;23.292;2023-03-22T03:22:52;68573.30;;;9.40;100.00
22930;BME280;11630;42.660;23.292;2023-03-22T03:25:30;68575.73;;;9.38;100.00
22930;BME280;11630;42.660;23.292;2023-03-22T03:28:04;68559.43;;;9.23;100.00
22930;BME280;11630;42.660;23.292;2023-03-22T03:30:42;68561.33;;;9.29;100.00
22930;BME280;11630;42.660;23.292;2023-03-22T03:33:12;68570.58;;;9.37;100.00
22930;BME280;11630;42.660;23.292;2023-03-22T03:36:06;68552.39;;;9.24;100.00
22930;BME280;11630;42.660;23.292;2023-03-22T03:38:33;68542.88;;;9.15;100.00
22930;BME280;11630;42.660;23.292;2023-03-22T03:41:15;68548.03;;;9.16;100.00
22930;BME280;11630;42.660;23.292;2023-03-22T03:43:37;68554.55;;;9.21;100.00
22930;BME280;11630;42.660;23.292;2023-03-22T03:46:10;68552.66;;;9.23;100.00
22930;BME280;11630;42.660;23.292;2023-03-22T03:48:43;68571.67;;;9.38;100.00
22930;BME280;11630;42.660;23.292;2023-03-22T03:51:13;68576.83;;;9.44;100.00
22930;BME280;11630;42.660;23.292;2023-03-22T03:53:47;68588.24;;;9.57;100.00
22930;BME280;11630;42.660;23.292;2023-03-22T03:56:17;68587.41;;;9.50;100.00
22930;BME280;11630;42.660;23.292;2023-03-22T03:58:48;68583.34;;;9.48;100.00
22930;BME280;11630;42.660;23.292;2023-03-22T04:01:19;68577.09;;;9.43;100.00
22930;BME280;11630;42.660;23.292;2023-03-22T04:03:51;68588.77;;;9.55;100.00
22930;BME280;11630;42.660;23.292;2023-03-22T04:06:22;68590.69;;;9.56;100.00
22930;BME280;11630;42.660;23.292;2023-03-22T04:08:53;68591.77;;;9.57;100.00
22930;BME280;11630;42.660;23.292;2023-03-22T04:11:24;68579.28;;;9.48;100.00
22930;BME280;11630;42.660;23.292;2023-03-22T04:13:55;68587.41;;;9.48;100.00
22930;BME280;11630;42.660;23.292;2023-03-22T04:16:26;68579.27;;;9.45;100.00
22930;BME280;11630;42.660;23.292;2023-03-22T04:18:57;68591.77;;;9.57;100.00
22930;BME280;11630;42.660;23.292;2023-03-22T04:21:28;68579.55;;;9.47;100.00
22930;BME280;11630;42.660;23.292;2023-03-22T04:23:58;68581.43;;;9.45;100.00
22930;BME280;11630;42.660;23.292;2023-03-22T04:26:27;68582.25;;;9.49;100.00
22930;BME280;11630;42.660;23.292;2023-03-22T04:28:58;68592.04;;;9.56;100.00
22930;BME280;11630;42.660;23.292;2023-03-22T04:31:30;68581.45;;;9.47;100.00
22930;BME280;11630;42.660;23.292;2023-03-22T04:34:01;68574.64;;;9.40;100.00
22930;BME280;11630;42.660;23.292;2023-03-22T04:36:35;68575.18;;;9.40;100.00
22930;BME280;11630;42.660;23.292;2023-03-22T04:39:10;68590.42;;;9.57;100.00
22930;BME280;11630;42.660;23.292;2023-03-22T04:41:41;68584.17;;;9.52;100.00
22930;BME280;11630;42.660;23.292;2023-03-22T04:44:12;68583.61;;;9.47;100.00
22930;BME280;11630;42.660;23.292;2023-03-22T04:46:43;68578.19;;;9.44;100.00
22930;BME280;11630;42.660;23.292;2023-03-22T04:49:14;68593.39;;;9.56;100.00
22930;BME280;11630;42.660;23.292;2023-03-22T04:51:45;68589.06;;;9.54;100.00
22930;BME280;11630;42.660;23.292;2023-03-22T04:54:16;68588.77;;;9.55;100.00
22930;BME280;11630;42.660;23.292;2023-03-22T04:56:46;68587.15;;;9.51;100.00
22930;BME280;11630;42.660;23.292;2023-03-22T04:59:17;68586.89;;;9.55;100.00
22930;BME280;11630;42.660;23.292;2023-03-22T05:01:49;68582.81;;;9.52;100.00
22930;BME280;11630;42.660;23.292;2023-03-22T05:04:21;68587.68;;;9.52;100.00
22930;BME280;11630;42.660;23.292;2023-03-22T05:06:52;68586.89;;;9.57;100.00
22930;BME280;11630;42.660;23.292;2023-03-22T05:09:23;68590.69;;;9.56;100.00
22930;BME280;11630;42.660;23.292;2023-03-22T05:11:54;68576.01;;;9.45;100.00
22930;BME280;11630;42.660;23.292;2023-03-22T05:14:24;68579.54;;;9.44;100.00
22930;BME280;11630;42.660;23.292;2023-03-22T05:16:55;68575.48;;;9.44;100.00
22930;BME280;11630;42.660;23.292;2023-03-22T05:19:26;68571.41;;;9.42;100.00
22930;BME280;11630;42.660;23.292;2023-03-22T05:21:57;68578.72;;;9.42;100.00
22930;BME280;11630;42.660;23.292;2023-03-22T05:24:29;68572.73;;;9.34;100.00
22930;BME280;11630;42.660;23.292;2023-03-22T05:27:00;68571.12;;;9.40;100.00
22930;BME280;11630;42.660;23.292;2023-03-22T05:29:30;68583.91;;;9.51;100.00
22930;BME280;11630;42.660;23.292;2023-03-22T05:32:02;68583.08;;;9.51;100.00
22930;BME280;11630;42.660;23.292;2023-03-22T05:34:33;68590.69;;;9.56;100.00
22930;BME280;11630;42.660;23.292;2023-03-22T05:37:04;68598.56;;;9.64;100.00
22930;BME280;11630;42.660;23.292;2023-03-22T05:39:34;68587.70;;;9.54;100.00
22930;BME280;11630;42.660;23.292;2023-03-22T05:42:05;68585.80;;;9.56;100.00
22930;BME280;11630;42.660;23.292;2023-03-22T05:44:35;68606.72;;;9.69;100.00
22930;BME280;11630;42.660;23.292;2023-03-22T05:47:06;68610.79;;;9.72;100.00
22930;BME280;11630;42.660;23.292;2023-03-22T05:49:37;68610.53;;;9.75;100.00
22930;BME280;11630;42.660;23.292;2023-03-22T05:52:08;68602.10;;;9.69;100.00
22930;BME280;11630;42.660;23.292;2023-03-22T05:54:39;68596.11;;;9.61;100.00
22930;BME280;11630;42.660;23.292;2023-03-22T05:57:10;68603.16;;;9.62;100.00
22930;BME280;11630;42.660;23.292;2023-03-22T05:59:42;68595.31;;;9.61;100.00
22930;BME280;11630;42.660;23.292;2023-03-22T06:02:13;68599.13;;;9.67;100.00
22930;BME280;11630;42.660;23.292;2023-03-22T06:04:43;68606.73;;;9.72;100.00
22930;BME280;11630;42.660;23.292;2023-03-22T06:07:14;68603.72;;;9.68;100.00
22930;BME280;11630;42.660;23.292;2023-03-22T06:09:45;68601.83;;;9.67;100.00
22930;BME280;11630;42.660;23.292;2023-03-22T06:12:16;68597.47;;;9.63;100.00
22930;BME280;11630;42.660;23.292;2023-03-22T06:14:47;68603.75;;;9.73;100.00
22930;BME280;11630;42.660;23.292;2023-03-22T06:17:19;68612.69;;;9.77;100.00
22930;BME280;11630;42.660;23.292;2023-03-22T06:19:50;68618.96;;;9.84;100.00
22930;BME280;11630;42.660;23.292;2023-03-22T06:22:20;68628.72;;;9.88;100.00
22930;BME280;11630;42.660;23.292;2023-03-22T06:24:51;68620.58;;;9.83;100.00
22930;BME280;11630;42.660;23.292;2023-03-22T06:27:21;68620.59;;;9.88;100.00
22930;BME280;11630;42.660;23.292;2023-03-22T06:29:52;68626.28;;;9.90;100.00
22930;BME280;11630;42.660;23.292;2023-03-22T06:32:24;68639.63;;;10.00;100.00
22930;BME280;11630;42.660;23.292;2023-03-22T06:34:55;68636.36;;;10.00;100.00
22930;BME280;11630;42.660;23.292;2023-03-22T06:37:25;68643.44;;;10.04;100.00
22930;BME280;11630;42.660;23.292;2023-03-22T06:39:56;68631.17;;;9.94;100.00
22930;BME280;11630;42.660;23.292;2023-03-22T06:42:27;68649.95;;;10.10;100.00
22930;BME280;11630;42.660;23.292;2023-03-22T06:44:57;68661.11;;;10.21;100.00
22930;BME280;11630;42.660;23.292;2023-03-22T06:47:27;68662.47;;;10.21;100.00
22930;BME280;11630;42.660;23.292;2023-03-22T06:49:58;68656.48;;;10.18;100.00
22930;BME280;11630;42.660;23.292;2023-03-22T06:52:28;68657.03;;;10.16;100.00
22930;BME280;11630;42.660;23.292;2023-03-22T06:54:59;68665.45;;;10.23;100.00
22930;BME280;11630;42.660;23.292;2023-03-22T06:57:30;68668.45;;;10.29;100.00
22930;BME280;11630;42.660;23.292;2023-03-22T07:00:01;68664.38;;;10.24;100.00
22930;BME280;11630;42.660;23.292;2023-03-22T07:02:31;68666.27;;;10.25;100.00
22930;BME280;11630;42.660;23.292;2023-03-22T07:05:02;68654.58;;;10.13;100.00
22930;BME280;11630;42.660;23.292;2023-03-22T07:07:33;68663.55;;;10.20;100.00
22930;BME280;11630;42.660;23.292;2023-03-22T07:10:04;68673.34;;;10.34;100.00
22930;BME280;11630;42.660;23.292;2023-03-22T07:12:35;68676.89;;;10.36;100.00
22930;BME280;11630;42.660;23.292;2023-03-22T07:15:07;68689.66;;;10.49;100.00
22930;BME280;11630;42.660;23.292;2023-03-22T07:17:38;68691.83;;;10.46;100.00
22930;BME280;11630;42.660;23.292;2023-03-22T07:20:10;68694.27;;;10.52;100.00
22930;BME280;11630;42.660;23.292;2023-03-22T07:22:40;68674.97;;;10.33;100.00
22930;BME280;11630;42.660;23.292;2023-03-22T07:25:10;68670.64;;;10.34;100.00
22930;BME280;11630;42.660;23.292;2023-03-22T07:27:40;68671.16;;;10.27;100.00
22930;BME280;11630;42.660;23.292;2023-03-22T07:30:11;68661.11;;;10.19;100.00
22930;BME280;11630;42.660;23.292;2023-03-22T07:32:42;68671.70;;;10.30;100.00
22930;BME280;11630;42.660;23.292;2023-03-22T07:35:13;68683.13;;;10.40;100.00
22930;BME280;11630;42.660;23.292;2023-03-22T07:37:44;68684.20;;;10.41;100.00
22930;BME280;11630;42.660;23.292;2023-03-22T07:40:15;68673.06;;;10.30;100.00
22930;BME280;11630;42.660;23.292;2023-03-22T07:42:47;68668.72;;;10.23;100.00
22930;BME280;11630;42.660;23.292;2023-03-22T07:45:19;68667.09;;;10.27;100.00
22930;BME280;11630;42.660;23.292;2023-03-22T07:47:50;68672.80;;;10.33;100.00
22930;BME280;11630;42.660;23.292;2023-03-22T07:50:20;68659.19;;;10.18;100.00
22930;BME280;11630;42.660;23.292;2023-03-22T07:52:51;68665.73;;;10.27;100.00
22930;BME280;11630;42.660;23.292;2023-03-22T07:55:22;68671.98;;;10.31;100.00
22930;BME280;11630;42.660;23.292;2023-03-22T07:57:53;68665.71;;;10.22;100.00
22930;BME280;11630;42.660;23.292;2023-03-22T08:00:23;68663.55;;;10.25;100.00
22930;BME280;11630;42.660;23.292;2023-03-22T08:02:54;68662.20;;;10.25;100.00
22930;BME280;11630;42.660;23.292;2023-03-22T08:05:26;68676.59;;;10.32;100.00
22930;BME280;11630;42.660;23.292;2023-03-22T08:07:56;68682.05;;;10.39;100.00
22930;BME280;11630;42.660;23.292;2023-03-22T08:10:27;68671.16;;;10.27;100.00
22930;BME280;11630;42.660;23.292;2023-03-22T08:12:58;68674.44;;;10.35;100.00
22930;BME280;11630;42.660;23.292;2023-03-22T08:15:30;68680.41;;;10.38;100.00
22930;BME280;11630;42.660;23.292;2023-03-22T08:18:00;68692.91;;;10.49;100.00
22930;BME280;11630;42.660;23.292;2023-03-22T08:20:31;68704.34;;;10.60;100.00
22930;BME280;11630;42.660;23.292;2023-03-22T08:23:02;68704.07;;;10.61;100.00
22930;BME280;11630;42.660;23.292;2023-03-22T08:25:33;68705.98;;;10.61;100.00
22930;BME280;11630;42.660;23.292;2023-03-22T08:28:03;68704.89;;;10.58;100.00
22930;BME280;11630;42.660;23.292;2023-03-22T08:30:33;68710.33;;;10.68;100.00
22930;BME280;11630;42.660;23.292;2023-03-22T08:33:04;68728.83;;;10.84;100.00
22930;BME280;11630;42.660;23.292;2023-03-22T08:35:35;68734.80;;;10.82;100.00
22930;BME280;11630;42.660;23.292;2023-03-22T08:38:06;68729.92;;;10.85;100.00
22930;BME280;11630;42.660;23.292;2023-03-22T08:40:37;68757.94;;;11.07;100.00
22930;BME280;11630;42.660;23.292;2023-03-22T08:43:08;68754.13;;;11.09;100.00
22930;BME280;11630;42.660;23.292;2023-03-22T08:45:39;68747.34;;;11.04;100.00
22930;BME280;11630;42.660;23.292;2023-03-22T08:48:10;68751.95;;;11.04;100.00
22930;BME280;11630;42.660;23.292;2023-03-22T08:50:40;68750.05;;;11.01;100.00
22930;BME280;11630;42.660;23.292;2023-03-22T08:53:11;68743.53;;;11.00;100.00
22930;BME280;11630;42.660;23.292;2023-03-22T08:55:43;68745.42;;;11.01;100.00
22930;BME280;11630;42.660;23.292;2023-03-22T08:58:16;68741.88;;;10.96;100.00
22930;BME280;11630;42.660;23.292;2023-03-22T09:00:50;68723.38;;;10.77;100.00
22930;BME280;11630;42.660;23.292;2023-03-22T09:03:21;68713.30;;;10.64;100.00
22930;BME280;11630;42.660;23.292;2023-03-22T09:08:35;68695.36;;;10.48;100.00
22930;BME280;11630;42.660;23.292;2023-03-22T09:11:07;68672.53;;;10.37;100.00
22930;BME280;11630;42.660;23.292;2023-03-22T09:13:39;68673.06;;;10.30;100.00
22930;BME280;11630;42.660;23.292;2023-03-22T09:16:10;68688.02;;;10.45;100.00
22930;BME280;11630;42.660;23.292;2023-03-22T09:18:41;68701.09;;;10.62;100.00
22930;BME280;11630;42.660;23.292;2023-03-22T09:21:11;68698.10;;;10.58;100.00
22930;BME280;11630;42.660;23.292;2023-03-22T09:23:41;68667.63;;;10.27;100.00
22930;BME280;11630;42.660;23.292;2023-03-22T09:26:12;68672.52;;;10.29;100.00
22930;BME280;11630;42.660;23.292;2023-03-22T09:28:43;68663.29;;;10.26;100.00
22930;BME280;11630;42.660;23.292;2023-03-22T09:31:14;68668.72;;;10.23;100.00
22930;BME280;11630;42.660;23.292;2023-03-22T09:33:46;68668.98;;;10.30;100.00
22930;BME280;11630;42.660;23.292;2023-03-22T09:36:18;68687.22;;;10.43;100.00
22930;BME280;11630;42.660;23.292;2023-03-22T09:38:48;68703.80;;;10.62;100.00
22930;BME280;11630;42.660;23.292;2023-03-22T09:41:21;68713.31;;;10.69;100.00
22930;BME280;11630;42.660;23.292;2023-03-22T09:43:54;68724.47;;;10.80;100.00
22930;BME280;11630;42.660;23.292;2023-03-22T09:46:29;68723.11;;;10.80;100.00
22930;BME280;11630;42.660;23.292;2023-03-22T09:49:01;68735.89;;;10.88;100.00
22930;BME280;11630;42.660;23.292;2023-03-22T09:51:48;68749.77;;;11.00;100.00
22930;BME280;11630;42.660;23.292;2023-03-22T09:54:28;68770.19;;;11.22;100.00
22930;BME280;11630;42.660;23.292;2023-03-22T09:56:57;68779.16;;;11.32;100.00
22930;BME280;11630;42.660;23.292;2023-03-22T10:05:28;68753.30;;;11.04;100.00
22930;BME280;11630;42.660;23.292;2023-03-22T10:08:11;68738.08;;;10.95;100.00
22930;BME280;11630;42.660;23.292;2023-03-22T10:10:38;68752.22;;;11.03;100.00
22930;BME280;11630;42.660;23.292;2023-03-22T10:13:24;68747.87;;;10.99;100.00
22930;BME280;11630;42.660;23.292;2023-03-22T10:15:58;68769.63;;;11.19;100.00
22930;BME280;11630;42.660;23.292;2023-03-22T10:18:32;68782.42;;;11.32;100.00
22930;BME280;11630;42.660;23.292;2023-03-22T10:21:12;68780.52;;;11.29;100.00
22930;BME280;11630;42.660;23.292;2023-03-22T10:24:03;68782.16;;;11.33;100.00
22930;BME280;11630;42.660;23.292;2023-03-22T10:26:40;68779.41;;;11.21;100.00
22930;BME280;11630;42.660;23.292;2023-03-22T10:29:36;68793.58;;;11.41;100.00
22930;BME280;11630;42.660;23.292;2023-03-22T10:32:17;68813.75;;;11.62;100.00
22930;BME280;11630;42.660;23.292;2023-03-22T10:34:45;68822.46;;;11.70;100.00
22930;BME280;11630;42.660;23.292;2023-03-22T10:37:19;68819.74;;;11.65;100.00
22930;BME280;11630;42.660;23.292;2023-03-22T10:39:51;68822.46;;;11.67;100.00
22930;BME280;11630;42.660;23.292;2023-03-22T10:42:27;68788.97;;;11.38;100.00
22930;BME280;11630;42.660;23.292;2023-03-22T10:45:07;68802.60;;;11.53;100.00
22930;BME280;11630;42.660;23.292;2023-03-22T10:47:59;68827.09;;;11.73;100.00
22930;BME280;11630;42.660;23.292;2023-03-22T10:50:37;68823.55;;;11.71;100.00
22930;BME280;11630;42.660;23.292;2023-03-22T10:55:44;68817.29;;;11.61;100.00
22930;BME280;11630;42.660;23.292;2023-03-22T10:58:21;68790.33;;;11.41;100.00
22930;BME280;11630;42.660;23.292;2023-03-22T11:00:57;68787.05;;;11.35;100.00
22930;BME280;11630;42.660;23.292;2023-03-22T11:06:15;68826.27;;;11.73;100.00
22930;BME280;11630;42.660;23.292;2023-03-22T11:09:12;68818.65;;;11.66;100.00
22930;BME280;11630;42.660;23.292;2023-03-22T11:11:54;68808.58;;;11.53;100.00
22930;BME280;11630;42.660;23.292;2023-03-22T11:14:41;68804.20;;;11.49;100.00
22930;BME280;11630;42.660;23.292;2023-03-22T11:17:11;68770.17;;;11.17;100.00
22930;BME280;11630;42.660;23.292;2023-03-22T11:19:54;68765.55;;;11.19;100.00
22930;BME280;11630;42.660;23.292;2023-03-22T11:22:37;68751.41;;;11.01;100.00
22930;BME280;11630;42.660;23.292;2023-03-22T11:25:22;68753.86;;;11.07;100.00
22930;BME280;11630;42.660;23.292;2023-03-22T11:27:57;68770.45;;;11.24;100.00
22930;BME280;11630;42.660;23.292;2023-03-22T11:30:29;68749.50;;;11.01;100.00
22930;BME280;11630;42.660;23.292;2023-03-22T11:35:42;68783.78;;;11.32;100.00
22930;BME280;11630;42.660;23.292;2023-03-22T11:38:22;68800.11;;;11.47;100.00
22930;BME280;11630;42.660;23.292;2023-03-22T11:40:47;68804.48;;;11.51;100.00
22930;BME280;11630;42.660;23.292;2023-03-22T11:43:19;68796.59;;;11.43;100.00
22930;BME280;11630;42.660;23.292;2023-03-22T11:45:52;68805.03;;;11.51;100.00
22930;BME280;11630;42.660;23.292;2023-03-22T11:48:26;68821.66;;;11.68;100.00
22930;BME280;11630;42.660;23.292;2023-03-22T11:51:05;68843.43;;;11.88;100.00
22930;BME280;11630;42.660;23.292;2023-03-22T11:53:39;68859.48;;;11.99;100.00
22930;BME280;11630;42.660;23.292;2023-03-22T11:56:14;68842.07;;;11.88;100.00
22930;BME280;11630;42.660;23.292;2023-03-22T12:04:10;68829.81;;;11.73;100.00
22930;BME280;11630;42.660;23.292;2023-03-22T12:06:41;68887.81;;;12.29;100.00
22930;BME280;11630;42.660;23.292;2023-03-22T12:11:55;68848.05;;;11.91;100.00
22930;BME280;11630;42.660;23.292;2023-03-22T12:17:31;68989.77;;;13.15;100.00
22930;BME280;11630;42.660;23.292;2023-03-22T12:20:06;69166.56;;;14.76;100.00
22930;BME280;11630;42.660;23.292;2023-03-22T12:22:42;69259.69;;;15.69;100.00
22930;BME280;11630;42.660;23.292;2023-03-22T12:25:22;69301.80;;;15.98;100.00
22930;BME280;11630;42.660;23.292;2023-03-22T12:27:57;69332.69;;;16.22;100.00
22930;BME280;11630;42.660;23.292;2023-03-22T12:30:41;69363.02;;;16.56;100.00
22930;BME280;11630;42.660;23.292;2023-03-22T12:33:18;69378.63;;;16.69;100.00
22930;BME280;11630;42.660;23.292;2023-03-22T12:35:51;69366.61;;;16.48;100.00
22930;BME280;11630;42.660;23.292;2023-03-22T12:40:59;69194.41;;;15.04;100.00
22930;BME280;11630;42.660;23.292;2023-03-22T12:43:51;69079.76;;;14.04;100.00
22930;BME280;11630;42.660;23.292;2023-03-22T12:46:32;69057.38;;;13.84;100.00
22930;BME280;11630;42.660;23.292;2023-03-22T12:51:53;69032.30;;;13.56;100.00
22930;BME280;11630;42.660;23.292;2023-03-22T12:54:25;68999.30;;;13.30;100.00
22930;BME280;11630;42.660;23.292;2023-03-22T12:56:56;68989.20;;;13.14;100.00
22930;BME280;11630;42.660;23.292;2023-03-22T12:59:28;68978.31;;;13.05;100.00
22930;BME280;11630;42.660;23.292;2023-03-22T13:02:12;68937.69;;;12.71;100.00
22930;BME280;11630;42.660;23.292;2023-03-22T13:07:14;68903.89;;;12.40;100.00
22930;BME280;11630;42.660;23.292;2023-03-22T13:09:49;68889.45;;;12.28;100.00
22930;BME280;11630;42.660;23.292;2023-03-22T13:15:00;68895.44;;;12.36;100.00
22930;BME280;11630;42.660;23.292;2023-03-22T13:17:37;68876.11;;;12.20;100.00
22930;BME280;11630;42.660;23.292;2023-03-22T13:28:01;68834.98;;;11.79;100.00
22930;BME280;11630;42.660;23.292;2023-03-22T13:30:50;68825.47;;;11.71;100.00
22930;BME280;11630;42.660;23.292;2023-03-22T13:33:32;68824.64;;;11.72;100.00
22930;BME280;11630;42.660;23.292;2023-03-22T13:36:23;68817.55;;;11.65;100.00
22930;BME280;11630;42.660;23.292;2023-03-22T13:38:58;68847.24;;;11.89;100.00
22930;BME280;11630;42.660;23.292;2023-03-22T13:41:34;68867.66;;;12.04;100.00
22930;BME280;11630;42.660;23.292;2023-03-22T13:44:02;68882.64;;;12.19;100.00
22930;BME280;11630;42.660;23.292;2023-03-22T13:49:26;68889.17;;;12.29;100.00
22930;BME280;11630;42.660;23.292;2023-03-22T13:51:59;68880.19;;;12.20;100.00
22930;BME280;11630;42.660;23.292;2023-03-22T13:54:35;68891.36;;;12.27;100.00
22930;BME280;11630;42.660;23.292;2023-03-22T13:57:03;68901.98;;;12.40;100.00
22930;BME280;11630;42.660;23.292;2023-03-22T14:02:27;68887.81;;;12.29;100.00
22930;BME280;11630;42.660;23.292;2023-03-22T14:05:08;68906.35;;;12.41;100.00
22930;BME280;11630;42.660;23.292;2023-03-22T14:07:49;68911.52;;;12.50;100.00
22930;BME280;11630;42.660;23.292;2023-03-22T14:10:37;68906.63;;;12.40;100.00
22930;BME280;11630;42.660;23.292;2023-03-22T14:13:19;68871.74;;;12.11;100.00
22930;BME280;11630;42.660;23.292;2023-03-22T14:15:51;68852.14;;;11.96;100.00
22930;BME280;11630;42.660;23.292;2023-03-22T14:18:27;68844.25;;;11.90;100.00
22930;BME280;11630;42.660;23.292;2023-03-22T14:21:05;68840.16;;;11.85;100.00
22930;BME280;11630;42.660;23.292;2023-03-22T14:23:41;68845.33;;;11.86;100.00
22930;BME280;11630;42.660;23.292;2023-03-22T14:26:18;68850.77;;;11.88;100.00
22930;BME280;11630;42.660;23.292;2023-03-22T14:28:48;68848.60;;;11.94;100.00
22930;BME280;11630;42.660;23.292;2023-03-22T14:31:23;68855.67;;;11.93;100.00
22930;BME280;11630;42.660;23.292;2023-03-22T14:33:58;68853.23;;;11.97;100.00